createdAt,value
2018-05-12T00:00:39.193Z,65.19
2018-05-12T00:03:06.798Z,65.19
2018-05-12T00:05:34.631Z,65.12
2018-05-12T00:08:02.254Z,65.11
2018-05-12T00:10:29.821Z,65.53
2018-05-12T00:12:59.515Z,65.51
2018-05-12T00:15:27.102Z,65.42
2018-05-12T00:17:54.777Z,65.49
2018-05-12T00:20:22.353Z,66.03
2018-05-12T00:22:49.957Z,65.85
2018-05-12T00:25:18.836Z,65.84
2018-05-12T00:27:47.725Z,66.07
2018-05-12T00:30:15.616Z,66.12
2018-05-12T00:32:43.366Z,66.18
2018-05-12T00:35:11.002Z,66.19
2018-05-12T00:37:38.635Z,66.37
2018-05-12T00:40:06.205Z,66.58
2018-05-12T00:42:34.010Z,66.40
2018-05-12T00:45:01.827Z,66.47
2018-05-12T00:47:29.463Z,66.67
2018-05-12T00:49:57.028Z,66.86
2018-05-12T00:52:24.754Z,66.95
2018-05-12T00:54:52.351Z,67.14
2018-05-12T00:57:19.925Z,67.10
2018-05-12T00:59:47.584Z,67.01
2018-05-12T01:02:15.211Z,67.33
2018-05-12T01:04:42.798Z,67.40
2018-05-12T01:07:12.355Z,67.33
2018-05-12T01:09:40.039Z,67.58
2018-05-12T01:12:07.617Z,67.36
2018-05-12T01:14:35.272Z,67.54
2018-05-12T01:17:03.261Z,67.49
2018-05-12T01:19:30.822Z,67.36
2018-05-12T01:21:58.699Z,67.28
2018-05-12T01:24:26.330Z,67.26
2018-05-12T01:26:54.127Z,67.25
2018-05-12T01:29:21.693Z,67.33
2018-05-12T01:31:50.075Z,67.29
2018-05-12T01:34:17.895Z,67.44
2018-05-12T01:36:45.778Z,67.39
2018-05-12T01:39:13.370Z,67.44
2018-05-12T01:41:40.971Z,67.63
2018-05-12T01:44:08.844Z,67.84
2018-05-12T01:46:36.423Z,67.64
2018-05-12T01:49:04.149Z,67.51
2018-05-12T01:51:31.750Z,67.46
2018-05-12T01:53:59.400Z,67.63
2018-05-12T01:56:27.004Z,67.79
2018-05-12T01:58:54.631Z,68.17
2018-05-12T02:01:22.299Z,68.28
2018-05-12T02:03:49.885Z,68.40
2018-05-12T02:06:17.523Z,68.53
2018-05-12T02:08:45.191Z,68.55
2018-05-12T02:11:12.832Z,68.57
2018-05-12T02:13:40.443Z,68.75
2018-05-12T02:16:08.116Z,69.08
2018-05-12T02:18:36.002Z,69.28
2018-05-12T02:21:03.588Z,69.47
2018-05-12T02:23:31.431Z,69.41
2018-05-12T02:25:59.072Z,69.52
2018-05-12T02:28:26.942Z,69.53
2018-05-12T02:30:54.542Z,69.83
2018-05-12T02:33:22.350Z,69.65
2018-05-12T02:35:49.957Z,69.61
2018-05-12T02:38:17.584Z,69.66
2018-05-12T02:40:45.171Z,69.70
2018-05-12T02:43:12.743Z,69.80
2018-05-12T02:45:40.360Z,70.45
2018-05-12T02:48:08.161Z,70.44
2018-05-12T02:50:35.892Z,70.43
2018-05-12T02:53:03.455Z,70.43
2018-05-12T02:55:31.076Z,70.89
2018-05-12T02:57:58.661Z,70.93
2018-05-12T03:00:27.123Z,71.37
2018-05-12T03:02:54.762Z,71.28
2018-05-12T03:05:22.338Z,72.03
2018-05-12T03:07:49.984Z,72.34
2018-05-12T03:10:17.573Z,72.40
2018-05-12T03:12:45.241Z,72.12
2018-05-12T03:15:12.811Z,72.56
2018-05-12T03:17:40.459Z,72.60
2018-05-12T03:20:08.101Z,72.64
2018-05-12T03:22:35.664Z,72.72
2018-05-12T03:25:03.436Z,72.86
2018-05-12T03:27:31.037Z,72.95
2018-05-12T03:29:59.542Z,73.02
2018-05-12T03:32:27.140Z,72.97
2018-05-12T03:34:54.701Z,72.94
2018-05-12T03:37:22.405Z,73.23
2018-05-12T03:39:49.975Z,73.08
2018-05-12T03:42:17.539Z,73.26
2018-05-12T03:44:45.180Z,73.18
2018-05-12T03:47:12.839Z,73.29
2018-05-12T03:49:40.836Z,73.30
2018-05-12T03:52:08.394Z,73.25
2018-05-12T03:54:35.970Z,73.59
2018-05-12T03:57:03.684Z,73.69
2018-05-12T03:59:31.260Z,73.61
2018-05-12T04:01:58.819Z,73.57
2018-05-12T04:04:38.096Z,73.78
2018-05-12T04:07:17.544Z,74.00
2018-05-12T04:09:57.064Z,73.88
2018-05-12T04:12:29.734Z,74.09
2018-05-12T04:14:57.355Z,74.06
2018-05-12T04:17:24.954Z,74.43
2018-05-12T04:19:52.562Z,74.30
2018-05-12T04:22:20.349Z,74.61
2018-05-12T04:24:47.914Z,74.97
2018-05-12T04:27:15.523Z,74.78
2018-05-12T04:29:43.107Z,75.13
2018-05-12T04:32:10.882Z,74.84
2018-05-12T04:34:38.475Z,75.19
2018-05-12T04:37:06.353Z,75.05
2018-05-12T04:39:34.323Z,74.92
2018-05-12T04:42:01.916Z,74.98
2018-05-12T04:44:29.501Z,74.99
2018-05-12T04:46:57.098Z,74.79
2018-05-12T04:49:24.714Z,74.78
2018-05-12T04:51:52.302Z,75.02
2018-05-12T04:54:20.158Z,74.63
2018-05-12T04:56:47.786Z,74.69
2018-05-12T04:59:15.398Z,74.44
2018-05-12T05:01:42.990Z,74.54
2018-05-12T05:04:10.556Z,74.25
2018-05-12T05:06:38.250Z,74.04
2018-05-12T05:09:06.058Z,74.00
2018-05-12T05:11:33.624Z,73.78
2018-05-12T05:14:01.448Z,73.65
2018-05-12T05:16:29.016Z,73.27
2018-05-12T05:18:56.613Z,73.10
2018-05-12T05:21:24.480Z,72.70
2018-05-12T05:23:52.282Z,72.72
2018-05-12T05:26:19.881Z,72.77
2018-05-12T05:28:47.448Z,72.66
2018-05-12T05:31:15.602Z,72.44
2018-05-12T05:33:43.236Z,72.33
2018-05-12T05:36:10.909Z,72.23
2018-05-12T05:38:38.524Z,71.72
2018-05-12T05:41:06.330Z,71.26
2018-05-12T05:43:34.454Z,71.69
2018-05-12T05:46:02.106Z,71.23
2018-05-12T05:48:29.670Z,70.62
2018-05-12T05:50:57.743Z,70.33
2018-05-12T05:53:25.324Z,70.41
2018-05-12T05:55:52.984Z,70.01
2018-05-12T05:58:20.688Z,69.69
2018-05-12T06:00:48.265Z,69.63
2018-05-12T06:03:15.891Z,69.29
2018-05-12T06:05:43.479Z,69.36
2018-05-12T06:08:11.043Z,69.48
2018-05-12T06:10:38.821Z,69.54
2018-05-12T06:13:06.485Z,69.71
2018-05-12T06:15:34.299Z,69.43
2018-05-12T06:18:02.175Z,68.88
2018-05-12T06:20:30.042Z,68.95
2018-05-12T06:22:57.987Z,68.95
2018-05-12T06:25:25.799Z,68.76
2018-05-12T06:27:53.426Z,68.48
2018-05-12T06:30:21.426Z,68.25
2018-05-12T06:32:49.218Z,68.22
2018-05-12T06:35:16.903Z,67.99
2018-05-12T06:37:44.495Z,67.80
2018-05-12T06:40:12.117Z,67.74
2018-05-12T06:42:39.739Z,66.91
2018-05-12T06:45:07.314Z,67.00
2018-05-12T06:47:34.906Z,66.55
2018-05-12T06:50:02.521Z,66.45
2018-05-12T06:52:30.079Z,66.35
2018-05-12T06:54:57.640Z,66.16
2018-05-12T06:57:25.311Z,65.64
2018-05-12T06:59:52.917Z,65.13
2018-05-12T07:02:20.628Z,63.63
2018-05-12T07:04:48.431Z,62.54
2018-05-12T07:07:16.089Z,62.83
2018-05-12T07:09:43.683Z,63.16
2018-05-12T07:12:11.282Z,63.12
2018-05-12T07:14:39.030Z,62.30
2018-05-12T07:17:06.699Z,62.25
2018-05-12T07:19:34.949Z,61.31
2018-05-12T07:22:03.184Z,60.74
2018-05-12T07:24:31.304Z,61.27
2018-05-12T07:26:59.629Z,60.59
2018-05-12T07:29:27.828Z,59.96
2018-05-12T07:31:56.255Z,60.41
2018-05-12T07:34:24.383Z,60.32
2018-05-12T07:36:53.505Z,59.79
2018-05-12T07:39:21.146Z,58.34
2018-05-12T07:41:48.800Z,58.29
2018-05-12T07:44:16.514Z,57.52
2018-05-12T07:46:44.258Z,57.76
2018-05-12T07:49:11.841Z,57.87
2018-05-12T07:51:39.752Z,56.39
2018-05-12T07:54:07.324Z,55.59
2018-05-12T07:56:35.036Z,56.23
2018-05-12T07:59:02.667Z,55.95
2018-05-12T08:01:30.232Z,56.09
2018-05-12T08:03:57.820Z,55.37
2018-05-12T08:06:25.386Z,55.32
2018-05-12T08:08:53.021Z,54.17
2018-05-12T08:11:20.589Z,54.56
2018-05-12T08:13:48.154Z,53.45
2018-05-12T08:16:15.851Z,53.89
2018-05-12T08:18:43.419Z,52.64
2018-05-12T08:21:10.987Z,51.33
2018-05-12T08:23:38.934Z,51.21
2018-05-12T08:26:06.854Z,51.77
2018-05-12T08:28:34.660Z,51.59
2018-05-12T08:31:03.138Z,51.84
2018-05-12T08:33:30.715Z,51.67
2018-05-12T08:35:58.662Z,51.92
2018-05-12T08:38:26.242Z,51.63
2018-05-12T08:40:54.055Z,50.21
2018-05-12T08:43:21.859Z,49.76
2018-05-12T08:45:49.426Z,49.98
2018-05-12T08:48:17.097Z,48.97
2018-05-12T08:50:44.659Z,48.52
2018-05-12T08:53:12.308Z,48.24
2018-05-12T08:55:39.961Z,48.20
2018-05-12T08:58:07.639Z,48.03
2018-05-12T09:00:35.228Z,47.19
2018-05-12T09:03:02.849Z,47.30
2018-05-12T09:05:30.651Z,47.85
2018-05-12T09:07:58.233Z,47.88
2018-05-12T09:10:25.878Z,46.42
2018-05-12T09:12:53.444Z,46.20
2018-05-12T09:15:21.125Z,45.90
2018-05-12T09:17:51.515Z,45.52
2018-05-12T09:20:20.101Z,44.03
2018-05-12T09:22:48.716Z,43.09
2018-05-12T09:25:16.582Z,42.39
2018-05-12T09:27:44.595Z,40.87
2018-05-12T09:30:12.190Z,42.68
2018-05-12T09:32:39.754Z,41.16
2018-05-12T09:35:07.338Z,39.82
2018-05-12T09:37:34.915Z,39.29
2018-05-12T09:40:02.551Z,37.79
2018-05-12T09:42:30.235Z,36.62
2018-05-12T09:44:57.822Z,36.16
2018-05-12T09:47:25.619Z,36.55
2018-05-12T09:49:53.323Z,35.17
2018-05-12T09:52:22.942Z,34.73
2018-05-12T09:54:50.532Z,34.03
2018-05-12T09:57:18.674Z,34.27
2018-05-12T09:59:46.539Z,32.88
2018-05-12T10:02:14.374Z,33.92
2018-05-12T10:04:42.156Z,31.71
2018-05-12T10:07:10.021Z,32.95
2018-05-12T10:09:37.739Z,32.71
2018-05-12T10:12:05.729Z,33.13
2018-05-12T10:14:33.363Z,33.62
2018-05-12T10:17:00.916Z,32.71
2018-05-12T10:19:28.646Z,32.79
2018-05-12T10:21:57.067Z,32.59
2018-05-12T10:24:25.004Z,30.01
2018-05-12T10:26:52.581Z,31.01
2018-05-12T10:29:20.147Z,32.76
2018-05-12T10:31:47.858Z,32.80
2018-05-12T10:34:15.653Z,31.88
2018-05-12T10:36:43.248Z,31.71
2018-05-12T10:39:10.905Z,32.79
2018-05-12T10:41:38.465Z,32.20
2018-05-12T10:44:06.535Z,30.96
2018-05-12T10:46:34.088Z,30.43
2018-05-12T10:49:02.112Z,29.87
2018-05-12T10:51:29.708Z,30.90
2018-05-12T10:53:57.334Z,31.06
2018-05-12T10:56:25.144Z,29.96
2018-05-12T10:58:52.775Z,30.64
2018-05-12T11:01:20.449Z,32.18
2018-05-12T11:03:48.146Z,30.95
2018-05-12T11:06:15.958Z,31.18
2018-05-12T11:08:43.540Z,29.69
2018-05-12T11:11:11.247Z,30.33
2018-05-12T11:13:38.963Z,31.31
2018-05-12T11:16:06.853Z,31.01
2018-05-12T11:18:34.493Z,30.90
2018-05-12T11:21:02.279Z,30.03
2018-05-12T11:23:29.981Z,30.08
2018-05-12T11:25:57.540Z,29.73
2018-05-12T11:28:25.099Z,30.69
2018-05-12T11:30:52.916Z,31.27
2018-05-12T11:33:20.709Z,30.44
2018-05-12T11:35:48.486Z,30.92
2018-05-12T11:38:16.361Z,30.36
2018-05-12T11:40:43.957Z,31.03
2018-05-12T11:43:11.513Z,31.02
2018-05-12T11:45:39.539Z,31.08
2018-05-12T11:48:07.373Z,30.52
2018-05-12T11:50:35.006Z,31.12
2018-05-12T11:53:02.618Z,31.46
2018-05-12T11:55:30.195Z,31.59
2018-05-12T11:57:57.756Z,29.14
2018-05-12T12:00:25.336Z,29.13
2018-05-12T12:02:53.595Z,29.49
2018-05-12T12:05:21.152Z,28.99
2018-05-12T12:07:48.717Z,29.94
2018-05-12T12:10:16.477Z,28.98
2018-05-12T12:12:44.117Z,28.25
2018-05-12T12:15:11.669Z,29.23
2018-05-12T12:17:39.471Z,28.83
2018-05-12T12:20:07.056Z,29.17
2018-05-12T12:22:34.602Z,29.50
2018-05-12T12:25:02.996Z,30.07
2018-05-12T12:27:30.548Z,30.14
2018-05-12T12:29:58.139Z,29.83
2018-05-12T12:32:25.821Z,30.04
2018-05-12T12:34:53.364Z,30.14
2018-05-12T12:37:20.910Z,30.04
2018-05-12T12:39:49.299Z,31.19
2018-05-12T12:42:17.096Z,31.68
2018-05-12T12:44:44.691Z,32.41
2018-05-12T12:47:12.328Z,31.35
2018-05-12T12:49:39.890Z,31.70
2018-05-12T12:52:07.745Z,31.57
2018-05-12T12:54:35.348Z,30.82
2018-05-12T12:57:03.029Z,31.39
2018-05-12T12:59:30.692Z,29.98
2018-05-12T13:01:58.242Z,30.20
2018-05-12T13:04:26.258Z,30.85
2018-05-12T13:06:54.131Z,31.03
2018-05-12T13:09:21.702Z,31.44
2018-05-12T13:11:49.605Z,31.49
2018-05-12T13:14:17.493Z,30.25
2018-05-12T13:16:45.050Z,31.15
2018-05-12T13:19:12.637Z,30.12
2018-05-12T13:21:40.422Z,31.00
2018-05-12T13:24:08.196Z,31.91
2018-05-12T13:26:36.105Z,31.84
2018-05-12T13:29:03.915Z,32.04
2018-05-12T13:31:31.563Z,32.47
2018-05-12T13:33:59.163Z,32.48
2018-05-12T13:36:27.059Z,31.29
2018-05-12T13:38:54.652Z,30.52
2018-05-12T13:41:22.364Z,31.10
2018-05-12T13:43:50.273Z,31.20
2018-05-12T13:46:17.823Z,32.00
2018-05-12T13:48:45.419Z,30.60
2018-05-12T13:51:12.967Z,30.57
2018-05-12T13:53:40.542Z,30.78
2018-05-12T13:56:08.102Z,30.90
2018-05-12T13:58:36.028Z,29.65
2018-05-12T14:01:03.815Z,30.58
2018-05-12T14:03:31.629Z,30.17
2018-05-12T14:05:59.253Z,30.13
2018-05-12T14:08:26.830Z,30.53
2018-05-12T14:10:54.463Z,31.66
2018-05-12T14:13:22.058Z,31.72
2018-05-12T14:15:49.936Z,32.03
2018-05-12T14:18:17.558Z,31.86
2018-05-12T14:20:45.138Z,32.28
2018-05-12T14:23:12.778Z,32.64
2018-05-12T14:25:40.708Z,32.89
2018-05-12T14:28:08.293Z,33.20
2018-05-12T14:30:35.875Z,32.63
2018-05-12T14:33:03.461Z,32.36
2018-05-12T14:35:31.091Z,33.74
2018-05-12T14:37:58.796Z,33.08
2018-05-12T14:40:26.363Z,33.70
2018-05-12T14:42:53.991Z,33.58
2018-05-12T14:45:21.807Z,33.20
2018-05-12T14:47:51.355Z,31.92
2018-05-12T14:50:18.960Z,31.98
2018-05-12T14:52:46.516Z,32.07
2018-05-12T14:55:14.102Z,32.78
2018-05-12T14:57:41.683Z,31.87
2018-05-12T15:00:09.265Z,31.92
2018-05-12T15:02:36.927Z,32.22
2018-05-12T15:05:04.576Z,32.33
2018-05-12T15:07:32.377Z,33.10
2018-05-12T15:10:00.045Z,33.19
2018-05-12T15:12:28.071Z,33.81
2018-05-12T15:14:55.745Z,34.57
2018-05-12T15:17:23.370Z,34.04
2018-05-12T15:19:50.987Z,34.41
2018-05-12T15:22:18.561Z,34.46
2018-05-12T15:24:46.144Z,34.38
2018-05-12T15:27:13.731Z,34.17
2018-05-12T15:29:41.440Z,34.64
2018-05-12T15:32:09.020Z,35.17
2018-05-12T15:34:36.577Z,34.85
2018-05-12T15:37:04.170Z,35.55
2018-05-12T15:39:31.851Z,35.65
2018-05-12T15:41:59.554Z,35.53
2018-05-12T15:44:27.219Z,35.99
2018-05-12T15:46:55.239Z,35.85
2018-05-12T15:49:22.900Z,36.03
2018-05-12T15:51:50.467Z,36.00
2018-05-12T15:54:18.446Z,35.93
2018-05-12T15:56:46.071Z,36.03
2018-05-12T15:59:13.695Z,35.56
2018-05-12T16:01:41.279Z,35.94
2018-05-12T16:04:09.231Z,36.14
2018-05-12T16:06:36.783Z,36.03
2018-05-12T16:09:04.398Z,35.81
2018-05-12T16:11:32.011Z,36.24
2018-05-12T16:13:59.625Z,36.40
2018-05-12T16:16:27.249Z,36.33
2018-05-12T16:18:55.166Z,36.26
2018-05-12T16:21:22.720Z,36.38
2018-05-12T16:23:50.280Z,37.14
2018-05-12T16:26:17.867Z,37.49
2018-05-12T16:28:45.487Z,37.38
2018-05-12T16:31:13.766Z,37.88
2018-05-12T16:33:41.285Z,38.22
2018-05-12T16:36:08.834Z,38.54
2018-05-12T16:38:36.421Z,38.30
2018-05-12T16:41:03.983Z,38.50
2018-05-12T16:43:31.701Z,38.22
2018-05-12T16:45:59.246Z,39.04
2018-05-12T16:48:27.125Z,38.97
2018-05-12T16:50:55.147Z,39.42
2018-05-12T16:53:22.706Z,39.46
2018-05-12T16:55:50.281Z,39.92
2018-05-12T16:58:17.889Z,40.06
2018-05-12T17:00:45.447Z,40.11
2018-05-12T17:03:13.086Z,40.06
2018-05-12T17:05:40.682Z,40.39
2018-05-12T17:08:08.469Z,40.45
2018-05-12T17:10:36.169Z,41.00
2018-05-12T17:13:03.967Z,41.14
2018-05-12T17:15:31.596Z,41.60
2018-05-12T17:17:59.188Z,41.92
2018-05-12T17:20:26.744Z,41.90
2018-05-12T17:22:54.796Z,42.03
2018-05-12T17:25:22.360Z,42.92
2018-05-12T17:27:49.919Z,42.80
2018-05-12T17:30:17.851Z,42.95
2018-05-12T17:32:45.481Z,43.30
2018-05-12T17:35:13.056Z,43.13
2018-05-12T17:37:40.869Z,43.03
2018-05-12T17:40:08.740Z,43.06
2018-05-12T17:42:36.322Z,43.21
2018-05-12T17:45:03.911Z,43.38
2018-05-12T17:47:31.662Z,43.49
2018-05-12T17:49:59.308Z,43.68
2018-05-12T17:52:26.866Z,43.69
2018-05-12T17:54:54.871Z,44.04
2018-05-12T17:57:22.488Z,44.19
2018-05-12T17:59:50.201Z,44.47
2018-05-12T18:02:17.868Z,44.63
2018-05-12T18:04:45.417Z,44.56
2018-05-12T18:07:13.021Z,44.91
2018-05-12T18:09:40.663Z,44.55
2018-05-12T18:12:08.527Z,44.76
2018-05-12T18:14:36.160Z,44.87
2018-05-12T18:17:03.921Z,45.00
2018-05-12T18:19:31.517Z,44.97
2018-05-12T18:21:59.158Z,45.21
2018-05-12T18:24:27.410Z,45.42
2018-05-12T18:26:55.037Z,45.76
2018-05-12T18:29:22.679Z,45.92
2018-05-12T18:31:50.485Z,46.15
2018-05-12T18:34:17.979Z,46.43
2018-05-12T18:36:45.553Z,46.51
2018-05-12T18:39:13.286Z,46.76
2018-05-12T18:41:41.100Z,47.04
2018-05-12T18:44:08.769Z,47.13
2018-05-12T18:46:36.319Z,47.23
2018-05-12T18:49:03.882Z,47.32
2018-05-12T18:51:31.598Z,47.90
2018-05-12T18:53:59.187Z,47.96
2018-05-12T18:56:26.744Z,48.06
2018-05-12T18:58:54.323Z,48.39
2018-05-12T19:01:21.894Z,48.73
2018-05-12T19:03:49.498Z,49.13
2018-05-12T19:06:17.103Z,49.30
2018-05-12T19:08:44.671Z,49.56
2018-05-12T19:11:12.444Z,49.74
2018-05-12T19:13:40.012Z,49.98
2018-05-12T19:16:07.581Z,49.98
2018-05-12T19:18:35.165Z,50.13
2018-05-12T19:21:02.791Z,50.24
2018-05-12T19:23:30.355Z,50.33
2018-05-12T19:25:57.918Z,50.71
2018-05-12T19:28:25.632Z,50.88
2018-05-12T19:30:53.204Z,51.03
2018-05-12T19:33:21.043Z,51.13
2018-05-12T19:35:48.636Z,51.23
2018-05-12T19:38:16.431Z,51.44
2018-05-12T19:40:44.731Z,51.57
2018-05-12T19:43:12.314Z,52.00
2018-05-12T19:45:40.101Z,52.53
2018-05-12T19:48:07.693Z,52.53
2018-05-12T19:50:35.273Z,52.65
2018-05-12T19:53:02.860Z,52.84
2018-05-12T19:55:30.467Z,53.01
2018-05-12T19:57:58.057Z,53.30
2018-05-12T20:00:25.713Z,53.39
2018-05-12T20:02:53.276Z,53.71
2018-05-12T20:05:20.876Z,53.75
2018-05-12T20:07:48.528Z,53.80
2018-05-12T20:10:16.320Z,54.13
2018-05-12T20:12:43.910Z,53.88
2018-05-12T20:15:11.800Z,54.34
2018-05-12T20:17:39.596Z,54.61
2018-05-12T20:20:07.252Z,54.74
2018-05-12T20:22:34.879Z,55.04
2018-05-12T20:25:02.596Z,55.14
2018-05-12T20:27:30.351Z,55.57
2018-05-12T20:29:57.978Z,55.61
2018-05-12T20:32:25.682Z,55.62
2018-05-12T20:34:53.328Z,55.62
2018-05-12T20:37:21.092Z,55.75
2018-05-12T20:39:48.641Z,55.91
2018-05-12T20:42:16.232Z,56.20
2018-05-12T20:44:44.035Z,56.49
2018-05-12T20:47:12.155Z,56.33
2018-05-12T20:49:39.719Z,56.40
2018-05-12T20:52:07.358Z,56.75
2018-05-12T20:54:34.979Z,57.15
2018-05-12T20:57:02.570Z,57.21
2018-05-12T20:59:30.508Z,57.42
2018-05-12T21:01:58.138Z,57.61
2018-05-12T21:04:25.756Z,58.01
2018-05-12T21:06:53.423Z,58.17
2018-05-12T21:09:20.988Z,58.11
2018-05-12T21:11:48.624Z,58.49
2018-05-12T21:14:16.201Z,58.51
2018-05-12T21:16:43.816Z,58.69
2018-05-12T21:19:11.478Z,59.26
2018-05-12T21:21:39.132Z,58.98
2018-05-12T21:24:06.847Z,59.13
2018-05-12T21:26:35.162Z,59.60
2018-05-12T21:29:02.738Z,59.79
2018-05-12T21:31:30.318Z,60.11
2018-05-12T21:33:57.908Z,60.37
2018-05-12T21:36:25.471Z,60.54
2018-05-12T21:38:53.108Z,60.70
2018-05-12T21:41:21.237Z,60.93
2018-05-12T21:43:49.369Z,61.07
2018-05-12T21:46:17.535Z,61.24
2018-05-12T21:48:45.663Z,61.64
2018-05-12T21:51:13.551Z,61.56
2018-05-12T21:53:41.816Z,61.83
2018-05-12T21:56:09.402Z,61.68
2018-05-12T21:58:36.999Z,62.11
2018-05-12T22:01:04.684Z,62.29
2018-05-12T22:03:32.334Z,62.34
2018-05-12T22:05:59.943Z,62.52
2018-05-12T22:08:27.525Z,62.55
2018-05-12T22:10:55.097Z,62.65
2018-05-12T22:13:22.976Z,62.96
2018-05-12T22:15:50.696Z,62.92
2018-05-12T22:18:18.266Z,63.41
2018-05-12T22:20:46.084Z,63.29
2018-05-12T22:23:13.686Z,63.40
2018-05-12T22:25:41.276Z,63.39
2018-05-12T22:28:08.960Z,63.58
2018-05-12T22:30:36.955Z,63.86
2018-05-12T22:33:04.657Z,63.80
2018-05-12T22:35:32.383Z,63.93
2018-05-12T22:38:00.018Z,63.87
2018-05-12T22:40:34.672Z,64.03
2018-05-12T22:43:02.601Z,64.26
2018-05-12T22:45:30.335Z,64.23
2018-05-12T22:47:57.997Z,64.59
2018-05-12T22:50:25.696Z,64.92
2018-05-12T22:53:07.332Z,65.15
2018-05-12T22:55:34.948Z,65.28
2018-05-12T22:58:02.654Z,65.18
2018-05-12T23:00:32.557Z,65.12
2018-05-12T23:03:00.228Z,65.13
2018-05-12T23:05:27.796Z,65.27
2018-05-12T23:07:55.900Z,65.53
2018-05-12T23:10:23.797Z,65.60
2018-05-12T23:12:51.439Z,65.77
2018-05-12T23:15:19.090Z,65.86
2018-05-12T23:17:47.013Z,65.90
2018-05-12T23:20:14.603Z,65.79
2018-05-12T23:22:48.114Z,66.02
2018-05-12T23:25:16.188Z,66.25
2018-05-12T23:27:43.778Z,66.74
2018-05-12T23:30:11.574Z,66.98
2018-05-12T23:32:39.251Z,66.86
2018-05-12T23:35:06.889Z,67.05
2018-05-12T23:37:34.823Z,66.93
2018-05-12T23:40:02.412Z,67.12
2018-05-12T23:42:30.184Z,67.07
2018-05-12T23:44:57.968Z,66.95
2018-05-12T23:47:25.680Z,67.09
2018-05-12T23:49:53.293Z,67.45
2018-05-12T23:52:20.864Z,67.64
2018-05-12T23:54:48.538Z,67.85
2018-05-12T23:57:16.115Z,68.04
2018-05-12T23:59:43.723Z,67.98
